createdAt,value
2017-08-30T00:01:09.461Z,98305.97
2017-08-30T00:03:36.906Z,98319.21
2017-08-30T00:06:04.377Z,98318.18
2017-08-30T00:08:31.821Z,98319.96
2017-08-30T00:10:59.279Z,98314.25
2017-08-30T00:13:26.753Z,98318.34
2017-08-30T00:15:54.243Z,98317.13
2017-08-30T00:18:21.694Z,98316.13
2017-08-30T00:20:49.153Z,98314.53
2017-08-30T00:23:16.622Z,98313.00
2017-08-30T00:25:55.743Z,98309.24
2017-08-30T00:28:23.217Z,98304.98
2017-08-30T00:30:50.662Z,98308.11
2017-08-30T00:33:18.137Z,98296.66
2017-08-30T00:35:45.582Z,98303.78
2017-08-30T00:38:13.038Z,98304.76
2017-08-30T00:40:40.505Z,98304.30
2017-08-30T00:43:07.948Z,98311.03
2017-08-30T00:45:35.422Z,98310.57
2017-08-30T00:48:02.865Z,98305.91
2017-08-30T00:50:30.395Z,98306.50
2017-08-30T00:52:57.862Z,98305.66
2017-08-30T00:55:25.323Z,98308.86
2017-08-30T00:57:52.794Z,98296.59
2017-08-30T01:07:03.442Z,98306.09
2017-08-30T01:09:30.935Z,98311.63
2017-08-30T01:11:58.388Z,98309.48
2017-08-30T01:14:25.828Z,98300.27
2017-08-30T01:16:53.306Z,98303.83
2017-08-30T01:19:20.760Z,98299.65
2017-08-30T01:21:48.205Z,98295.64
2017-08-30T01:24:15.678Z,98295.29
2017-08-30T01:26:43.125Z,98300.41
2017-08-30T01:29:10.576Z,98302.46
2017-08-30T01:31:38.053Z,98301.56
2017-08-30T01:34:05.520Z,98303.22
2017-08-30T01:36:32.966Z,98304.72
2017-08-30T01:39:00.433Z,98302.94
2017-08-30T01:41:27.900Z,98301.73
2017-08-30T01:43:55.377Z,98304.27
2017-08-30T01:46:22.861Z,98300.72
2017-08-30T01:48:50.309Z,98298.42
2017-08-30T01:51:17.790Z,98292.25
2017-08-30T01:53:45.227Z,98289.94
2017-08-30T01:56:12.669Z,98289.62
2017-08-30T01:58:40.404Z,98287.88
2017-08-30T02:01:07.868Z,98290.98
2017-08-30T02:03:35.324Z,98292.86
2017-08-30T02:06:02.790Z,98291.50
2017-08-30T02:08:30.530Z,98289.62
2017-08-30T02:10:57.987Z,98296.34
2017-08-30T02:13:25.436Z,98298.59
2017-08-30T02:15:52.909Z,98298.40
2017-08-30T02:18:20.357Z,98296.84
2017-08-30T02:20:47.814Z,98289.80
2017-08-30T02:23:15.273Z,98290.27
2017-08-30T02:25:42.745Z,98290.52
2017-08-30T02:28:10.196Z,98285.36
2017-08-30T02:30:37.667Z,98298.59
2017-08-30T02:33:05.137Z,98295.95
2017-08-30T02:35:32.603Z,98295.30
2017-08-30T02:38:00.054Z,98289.91
2017-08-30T02:40:27.538Z,98289.80
2017-08-30T02:42:54.993Z,98293.83
2017-08-30T02:45:22.433Z,98300.84
2017-08-30T02:47:49.908Z,98295.75
2017-08-30T02:50:17.399Z,98299.90
2017-08-30T02:52:44.850Z,98301.73
2017-08-30T02:55:12.313Z,98297.05
2017-08-30T02:57:39.782Z,98291.06
2017-08-30T03:00:07.232Z,98297.75
2017-08-30T03:02:34.706Z,98296.06
2017-08-30T03:05:02.174Z,98289.00
2017-08-30T03:07:29.637Z,98281.21
2017-08-30T03:09:57.106Z,98288.27
2017-08-30T03:12:24.545Z,98285.87
2017-08-30T03:14:52.010Z,98297.15
2017-08-30T03:17:19.453Z,98289.80
2017-08-30T03:19:46.918Z,98287.88
2017-08-30T03:22:14.369Z,98286.31
2017-08-30T03:24:41.838Z,98301.35
2017-08-30T03:27:09.313Z,98300.89
2017-08-30T03:29:36.770Z,98295.97
2017-08-30T03:32:04.241Z,98284.54
2017-08-30T03:34:31.711Z,98283.55
2017-08-30T03:36:59.182Z,98286.95
2017-08-30T03:39:26.650Z,98303.72
2017-08-30T03:41:54.147Z,98301.95
2017-08-30T03:44:21.593Z,98299.39
2017-08-30T03:46:49.057Z,98302.05
2017-08-30T03:49:16.507Z,98308.05
2017-08-30T03:51:43.963Z,98306.06
2017-08-30T03:54:11.422Z,98304.27
2017-08-30T03:56:38.910Z,98298.19
2017-08-30T03:59:06.349Z,98301.91
2017-08-30T04:01:33.815Z,98299.32
2017-08-30T04:04:01.289Z,98291.53
2017-08-30T04:06:28.732Z,98291.06
2017-08-30T04:08:56.210Z,98300.59
2017-08-30T04:11:23.678Z,98297.96
2017-08-30T04:13:51.140Z,98302.84
2017-08-30T04:16:18.605Z,98299.88
2017-08-30T04:18:46.084Z,98296.86
2017-08-30T04:21:13.537Z,98299.41
2017-08-30T04:23:41.008Z,98303.30
2017-08-30T04:26:08.457Z,98301.77
2017-08-30T04:28:35.897Z,98301.18
2017-08-30T04:31:03.368Z,98304.09
2017-08-30T04:33:30.819Z,98298.09
2017-08-30T04:35:58.284Z,98302.89
2017-08-30T04:38:25.729Z,98308.41
2017-08-30T04:40:53.177Z,98304.92
2017-08-30T04:43:20.650Z,98301.15
2017-08-30T04:45:48.096Z,98297.34
2017-08-30T04:48:15.569Z,98306.53
2017-08-30T04:50:43.029Z,98308.64
2017-08-30T04:53:10.712Z,98308.69
2017-08-30T04:55:38.153Z,98304.62
2017-08-30T04:58:05.597Z,98309.22
2017-08-30T05:00:33.069Z,98304.53
2017-08-30T05:03:00.616Z,98309.35
2017-08-30T05:05:28.063Z,98306.91
2017-08-30T05:07:55.546Z,98306.16
2017-08-30T05:10:22.994Z,98302.70
2017-08-30T05:12:50.448Z,98302.94
2017-08-30T05:15:17.913Z,98302.50
2017-08-30T05:17:45.381Z,98300.47
2017-08-30T05:20:12.820Z,98302.37
2017-08-30T05:22:40.297Z,98301.98
2017-08-30T05:25:07.740Z,98294.37
2017-08-30T05:27:35.188Z,98300.58
2017-08-30T05:30:02.656Z,98298.67
2017-08-30T05:32:30.120Z,98303.39
2017-08-30T05:34:57.585Z,98289.88
2017-08-30T05:37:25.039Z,98286.51
2017-08-30T05:39:52.529Z,98292.19
2017-08-30T05:42:20.001Z,98285.42
2017-08-30T05:44:47.449Z,98299.11
2017-08-30T05:47:14.910Z,98295.51
2017-08-30T05:49:42.391Z,98296.88
2017-08-30T05:52:09.870Z,98302.97
2017-08-30T05:54:37.347Z,98306.78
2017-08-30T05:57:04.801Z,98305.17
2017-08-30T05:59:32.561Z,98295.81
2017-08-30T06:02:00.042Z,98299.90
2017-08-30T06:04:27.501Z,98301.17
2017-08-30T06:06:54.974Z,98300.96
2017-08-30T06:09:22.425Z,98303.31
2017-08-30T06:11:49.899Z,98301.14
2017-08-30T06:14:17.373Z,98299.73
2017-08-30T06:16:45.075Z,98295.34
2017-08-30T06:19:12.545Z,98293.16
2017-08-30T06:21:40.000Z,98291.55
2017-08-30T06:24:07.474Z,98289.66
2017-08-30T06:26:34.928Z,98285.30
2017-08-30T06:29:02.407Z,98291.02
2017-08-30T06:31:29.871Z,98286.98
2017-08-30T06:33:57.336Z,98294.52
2017-08-30T06:36:24.797Z,98291.26
2017-08-30T06:38:52.430Z,98288.93
2017-08-30T06:41:19.877Z,98298.42
2017-08-30T06:43:47.350Z,98294.36
2017-08-30T06:46:14.805Z,98291.42
2017-08-30T06:48:42.556Z,98284.75
2017-08-30T06:51:10.010Z,98282.38
2017-08-30T06:53:37.529Z,98280.23
2017-08-30T06:56:05.005Z,98275.70
2017-08-30T06:58:32.454Z,98276.22
2017-08-30T07:00:59.926Z,98283.30
2017-08-30T07:03:27.644Z,98283.55
2017-08-30T07:05:55.122Z,98282.72
2017-08-30T07:08:22.569Z,98284.48
2017-08-30T07:10:50.022Z,98279.92
2017-08-30T07:13:17.506Z,98283.25
2017-08-30T07:15:44.953Z,98282.48
2017-08-30T07:18:12.433Z,98274.61
2017-08-30T07:20:39.911Z,98278.21
2017-08-30T07:23:07.359Z,98280.51
2017-08-30T07:25:34.815Z,98282.24
2017-08-30T07:34:45.574Z,98283.45
2017-08-30T07:37:13.024Z,98273.77
2017-08-30T07:39:40.498Z,98277.44
2017-08-30T07:42:07.944Z,98277.29
2017-08-30T07:44:35.392Z,98277.02
2017-08-30T07:47:02.860Z,98270.81
2017-08-30T07:49:30.322Z,98268.58
2017-08-30T07:51:57.794Z,98268.38
2017-08-30T07:54:25.233Z,98271.87
2017-08-30T07:56:52.703Z,98265.63
2017-08-30T07:59:20.174Z,98266.27
2017-08-30T08:01:47.637Z,98271.22
2017-08-30T08:04:15.115Z,98269.50
2017-08-30T08:06:42.564Z,98269.34
2017-08-30T08:09:10.017Z,98271.20
2017-08-30T08:11:37.484Z,98275.20
2017-08-30T08:14:04.938Z,98272.91
2017-08-30T08:16:32.400Z,98277.45
2017-08-30T08:18:59.851Z,98268.91
2017-08-30T08:21:27.297Z,98265.34
2017-08-30T08:23:54.757Z,98273.20
2017-08-30T08:26:22.242Z,98270.07
2017-08-30T08:28:49.690Z,98261.11
2017-08-30T08:31:17.126Z,98264.06
2017-08-30T08:33:44.588Z,98266.88
2017-08-30T08:36:12.384Z,98267.32
2017-08-30T08:38:39.825Z,98266.88
2017-08-30T08:41:07.276Z,98266.88
2017-08-30T08:43:34.736Z,98262.08
2017-08-30T08:46:02.189Z,98254.73
2017-08-30T08:48:29.633Z,98258.14
2017-08-30T08:50:57.109Z,98258.27
2017-08-30T08:53:24.561Z,98256.03
2017-08-30T08:55:52.013Z,98258.89
2017-08-30T08:58:19.489Z,98254.06
2017-08-30T09:00:46.957Z,98252.03
2017-08-30T09:03:14.420Z,98252.55
2017-08-30T09:05:41.880Z,98256.95
2017-08-30T09:08:09.359Z,98251.38
2017-08-30T09:10:36.808Z,98246.84
2017-08-30T09:13:04.283Z,98244.98
2017-08-30T09:15:31.752Z,98233.41
2017-08-30T09:17:59.201Z,98234.34
2017-08-30T09:20:26.641Z,98234.77
2017-08-30T09:22:54.118Z,98237.00
2017-08-30T09:25:21.578Z,98233.05
2017-08-30T09:27:49.050Z,98238.41
2017-08-30T09:30:16.516Z,98236.69
2017-08-30T09:32:43.986Z,98231.78
2017-08-30T09:35:11.428Z,98232.02
2017-08-30T09:37:38.895Z,98237.53
2017-08-30T09:40:06.342Z,98230.38
2017-08-30T09:42:33.805Z,98222.84
2017-08-30T09:45:01.277Z,98216.91
2017-08-30T09:47:28.746Z,98215.23
2017-08-30T09:49:56.190Z,98219.86
2017-08-30T09:52:23.636Z,98215.33
2017-08-30T09:54:51.106Z,98216.23
2017-08-30T09:57:18.545Z,98215.05
2017-08-30T09:59:46.008Z,98207.10
2017-08-30T10:02:13.470Z,98205.44
2017-08-30T10:04:40.941Z,98204.21
2017-08-30T10:07:08.385Z,98199.95
2017-08-30T10:09:35.833Z,98203.02
2017-08-30T10:12:03.296Z,98199.52
2017-08-30T10:14:30.737Z,98196.17
2017-08-30T10:16:58.236Z,98196.02
2017-08-30T10:19:25.678Z,98194.77
2017-08-30T10:21:53.148Z,98196.60
2017-08-30T10:24:20.609Z,98193.34
2017-08-30T10:26:48.066Z,98185.39
2017-08-30T10:29:15.513Z,98194.27
2017-08-30T10:31:42.985Z,98192.29
2017-08-30T10:34:10.438Z,98188.77
2017-08-30T10:36:37.889Z,98186.63
2017-08-30T10:39:05.353Z,98183.52
2017-08-30T10:41:32.801Z,98181.53
2017-08-30T10:44:00.274Z,98178.48
2017-08-30T10:46:28.670Z,98181.23
2017-08-30T10:48:56.133Z,98169.85
2017-08-30T10:51:23.589Z,98167.67
2017-08-30T10:53:51.065Z,98164.05
2017-08-30T10:56:18.597Z,98161.58
2017-08-30T10:58:46.041Z,98160.71
2017-08-30T11:01:13.506Z,98160.20
2017-08-30T11:03:40.950Z,98160.51
2017-08-30T11:06:08.409Z,98153.62
2017-08-30T11:08:35.873Z,98153.67
2017-08-30T11:11:03.323Z,98149.66
2017-08-30T11:13:30.765Z,98149.71
2017-08-30T11:15:58.237Z,98146.73
2017-08-30T11:18:25.709Z,98143.19
2017-08-30T11:20:53.421Z,98148.59
2017-08-30T11:23:20.862Z,98152.36
2017-08-30T11:25:48.309Z,98143.36
2017-08-30T11:28:15.778Z,98149.36
2017-08-30T11:30:43.250Z,98142.41
2017-08-30T11:33:10.729Z,98142.22
2017-08-30T11:35:38.173Z,98146.34
2017-08-30T11:38:05.629Z,98142.28
2017-08-30T11:40:33.100Z,98143.56
2017-08-30T11:43:00.868Z,98141.11
2017-08-30T11:45:28.316Z,98136.25
2017-08-30T11:47:55.786Z,98132.39
2017-08-30T11:50:23.257Z,98131.56
2017-08-30T11:52:50.702Z,98126.53
2017-08-30T11:55:18.170Z,98130.00
2017-08-30T11:57:45.645Z,98130.94
2017-08-30T12:00:13.114Z,98129.23
2017-08-30T12:02:40.558Z,98118.81
2017-08-30T12:05:08.060Z,98120.02
2017-08-30T12:07:35.530Z,98125.69
2017-08-30T12:10:02.981Z,98119.63
2017-08-30T12:12:30.454Z,98115.41
2017-08-30T12:14:57.907Z,98115.75
2017-08-30T12:17:25.369Z,98113.84
2017-08-30T12:19:52.819Z,98099.83
2017-08-30T12:22:20.269Z,98099.45
2017-08-30T12:24:47.742Z,98099.17
2017-08-30T12:27:15.220Z,98094.69
2017-08-30T12:29:42.887Z,98094.31
2017-08-30T12:32:10.366Z,98086.80
2017-08-30T12:34:37.866Z,98088.97
2017-08-30T12:37:10.813Z,98087.25
2017-08-30T12:39:39.097Z,98075.66
2017-08-30T12:42:06.576Z,98078.70
2017-08-30T12:44:34.173Z,98083.56
2017-08-30T12:47:01.638Z,98073.41
2017-08-30T12:49:29.083Z,98077.66
2017-08-30T12:51:56.570Z,98069.31
2017-08-30T12:54:24.272Z,98076.52
2017-08-30T12:56:51.722Z,98072.31
2017-08-30T12:59:19.168Z,98065.17
2017-08-30T13:01:46.705Z,98070.26
2017-08-30T13:04:14.152Z,98069.71
2017-08-30T13:06:41.619Z,98066.05
2017-08-30T13:09:09.092Z,98063.55
2017-08-30T13:11:36.547Z,98052.77
2017-08-30T13:14:04.041Z,98058.00
2017-08-30T13:16:31.494Z,98049.72
2017-08-30T13:18:58.967Z,98054.81
2017-08-30T13:21:26.410Z,98050.13
2017-08-30T13:23:54.151Z,98052.80
2017-08-30T13:26:21.627Z,98050.97
2017-08-30T13:28:49.101Z,98043.93
2017-08-30T13:31:16.584Z,98042.02
2017-08-30T13:33:44.053Z,98041.38
2017-08-30T13:36:11.525Z,98041.37
2017-08-30T13:38:38.972Z,98043.64
2017-08-30T13:41:06.444Z,98039.90
2017-08-30T13:43:33.916Z,98035.86
2017-08-30T13:46:01.371Z,98034.34
2017-08-30T13:48:28.842Z,98037.20
2017-08-30T13:50:56.312Z,98028.30
2017-08-30T13:53:23.756Z,98030.05
2017-08-30T13:55:51.232Z,98030.56
2017-08-30T13:58:18.694Z,98026.75
2017-08-30T14:00:46.162Z,98028.85
2017-08-30T14:03:13.611Z,98023.69
2017-08-30T14:05:41.049Z,98025.22
2017-08-30T14:08:08.677Z,98016.45
2017-08-30T14:10:36.223Z,98016.61
2017-08-30T14:19:46.856Z,98017.80
2017-08-30T14:22:14.304Z,98008.14
2017-08-30T14:24:41.901Z,98002.16
2017-08-30T14:27:09.357Z,97999.88
2017-08-30T14:29:36.818Z,98006.25
2017-08-30T14:32:04.290Z,97991.08
2017-08-30T14:34:31.741Z,97989.16
2017-08-30T14:36:59.186Z,97982.27
2017-08-30T14:39:26.658Z,97993.59
2017-08-30T14:41:54.129Z,97995.63
2017-08-30T14:44:21.593Z,97987.98
2017-08-30T14:46:49.041Z,97990.51
2017-08-30T14:49:16.490Z,97988.56
2017-08-30T14:51:43.961Z,97989.37
2017-08-30T14:54:11.406Z,97980.58
2017-08-30T14:56:38.845Z,97976.47
2017-08-30T14:59:06.313Z,97969.87
2017-08-30T15:01:33.763Z,97969.52
2017-08-30T15:04:01.201Z,97969.14
2017-08-30T15:06:28.669Z,97967.34
2017-08-30T15:08:56.119Z,97967.16
2017-08-30T15:11:23.582Z,97961.97
2017-08-30T15:13:51.033Z,97961.77
2017-08-30T15:16:18.526Z,97955.40
2017-08-30T15:18:45.992Z,97957.52
2017-08-30T15:21:13.479Z,97950.22
2017-08-30T15:23:40.930Z,97948.69
2017-08-30T15:26:08.368Z,97948.29
2017-08-30T15:28:35.845Z,97945.52
2017-08-30T15:31:03.609Z,97951.99
2017-08-30T15:33:31.066Z,97946.81
2017-08-30T15:35:58.513Z,97950.23
2017-08-30T15:38:25.981Z,97945.38
2017-08-30T15:40:53.443Z,97937.70
2017-08-30T15:43:20.918Z,97934.03
2017-08-30T15:45:48.369Z,97943.42
2017-08-30T15:48:16.148Z,97938.75
2017-08-30T15:50:43.622Z,97936.20
2017-08-30T15:53:11.065Z,97937.31
2017-08-30T15:55:38.504Z,97930.64
2017-08-30T15:58:05.977Z,97934.77
2017-08-30T16:00:33.437Z,97931.24
2017-08-30T16:03:00.910Z,97927.90
2017-08-30T16:05:28.350Z,97933.13
2017-08-30T16:07:55.801Z,97916.22
2017-08-30T16:10:23.334Z,97919.52
2017-08-30T16:12:50.791Z,97918.99
2017-08-30T16:15:18.263Z,97917.75
2017-08-30T16:17:45.703Z,97924.76
2017-08-30T16:20:13.151Z,97918.19
2017-08-30T16:22:40.627Z,97924.89
2017-08-30T16:25:08.103Z,97922.12
2017-08-30T16:27:35.582Z,97921.70
2017-08-30T16:30:03.050Z,97912.96
2017-08-30T16:32:30.502Z,97915.47
2017-08-30T16:34:57.970Z,97905.97
2017-08-30T16:37:25.417Z,97900.84
2017-08-30T16:39:52.885Z,97899.95
2017-08-30T16:42:20.326Z,97905.86
2017-08-30T16:44:47.799Z,97907.34
2017-08-30T16:47:15.240Z,97902.98
2017-08-30T16:49:43.412Z,97899.80
2017-08-30T16:52:10.863Z,97895.13
2017-08-30T16:54:38.309Z,97888.95
2017-08-30T16:57:06.577Z,97892.41
2017-08-30T16:59:34.366Z,97891.84
2017-08-30T17:02:01.871Z,97884.45
2017-08-30T17:04:29.798Z,97892.45
2017-08-30T17:06:57.984Z,97886.11
2017-08-30T17:09:25.458Z,97888.69
2017-08-30T17:11:52.902Z,97888.58
2017-08-30T17:14:20.377Z,97889.85
2017-08-30T17:16:47.825Z,97896.64
2017-08-30T17:19:15.297Z,97894.00
2017-08-30T17:21:42.745Z,97898.66
2017-08-30T17:24:10.206Z,97895.13
2017-08-30T17:26:38.345Z,97891.59
2017-08-30T17:29:06.905Z,97895.88
2017-08-30T17:31:34.369Z,97894.44
2017-08-30T17:34:01.813Z,97892.81
2017-08-30T17:36:29.273Z,97889.63
2017-08-30T17:38:56.741Z,97887.34
2017-08-30T17:41:24.215Z,97887.05
2017-08-30T17:43:51.660Z,97879.83
2017-08-30T17:46:19.829Z,97877.75
2017-08-30T17:48:47.502Z,97878.19
2017-08-30T17:51:15.193Z,97886.03
2017-08-30T17:53:43.668Z,97882.39
2017-08-30T17:56:11.113Z,97887.05
2017-08-30T17:58:38.561Z,97885.50
2017-08-30T18:01:06.030Z,97889.63
2017-08-30T18:03:33.485Z,97891.38
2017-08-30T18:06:00.959Z,97896.31
2017-08-30T18:08:29.313Z,97907.52
2017-08-30T18:10:56.792Z,97908.39
2017-08-30T18:13:24.241Z,97907.67
2017-08-30T18:15:51.697Z,97904.87
2017-08-30T18:18:20.206Z,97901.43
2017-08-30T18:20:47.837Z,97905.41
2017-08-30T18:23:15.343Z,97903.26
2017-08-30T18:25:43.801Z,97903.31
2017-08-30T18:28:12.021Z,97903.55
2017-08-30T18:30:39.595Z,97902.20
2017-08-30T18:33:07.113Z,97904.00
2017-08-30T18:35:34.736Z,97904.52
2017-08-30T18:38:02.557Z,97899.78
2017-08-30T18:40:30.011Z,97896.32
2017-08-30T18:42:57.465Z,97897.03
2017-08-30T18:45:24.960Z,97893.67
2017-08-30T18:47:52.430Z,97900.55
2017-08-30T18:50:19.951Z,97907.75
2017-08-30T18:52:47.423Z,97904.03
2017-08-30T18:55:14.926Z,97906.06
2017-08-30T18:57:42.420Z,97906.61
2017-08-30T19:00:09.894Z,97905.17
2017-08-30T19:02:37.360Z,97905.09
2017-08-30T19:05:04.961Z,97909.43
2017-08-30T19:07:32.455Z,97913.41
2017-08-30T19:10:00.150Z,97918.11
2017-08-30T19:12:27.685Z,97916.58
2017-08-30T19:14:55.153Z,97915.00
2017-08-30T19:17:22.627Z,97919.84
2017-08-30T19:19:50.108Z,97925.30
2017-08-30T19:22:17.596Z,97915.07
2017-08-30T19:24:45.504Z,97917.75
2017-08-30T19:27:13.003Z,97915.88
2017-08-30T19:29:40.504Z,97915.19
2017-08-30T19:32:08.006Z,97919.86
2017-08-30T19:34:35.467Z,97915.98
2017-08-30T19:37:03.490Z,97915.05
2017-08-30T19:39:30.990Z,97910.50
2017-08-30T19:41:58.508Z,97903.97
2017-08-30T19:44:25.970Z,97907.96
2017-08-30T19:46:53.456Z,97903.86
2017-08-30T19:49:20.920Z,97903.17
2017-08-30T19:51:48.410Z,97909.86
2017-08-30T19:54:15.864Z,97905.06
2017-08-30T19:56:43.319Z,97901.72
2017-08-30T19:59:10.826Z,97895.38
2017-08-30T20:01:38.288Z,97898.63
2017-08-30T20:04:05.787Z,97896.79
2017-08-30T20:06:33.245Z,97895.33
2017-08-30T20:09:00.694Z,97896.27
2017-08-30T20:11:28.290Z,97900.48
2017-08-30T20:13:55.753Z,97893.64
2017-08-30T20:16:23.266Z,97899.68
2017-08-30T20:18:50.726Z,97896.23
2017-08-30T20:21:18.174Z,97895.60
2017-08-30T20:23:45.650Z,97889.02
2017-08-30T20:26:13.141Z,97888.41
2017-08-30T20:28:40.846Z,97879.13
2017-08-30T20:31:08.305Z,97881.58
2017-08-30T20:33:35.790Z,97872.57
2017-08-30T20:36:03.283Z,97874.15
2017-08-30T20:38:30.786Z,97881.38
2017-08-30T20:40:58.235Z,97873.58
2017-08-30T20:43:25.701Z,97876.74
2017-08-30T20:45:53.175Z,97870.30
2017-08-30T20:48:20.626Z,97869.60
2017-08-30T20:50:48.185Z,97868.31
2017-08-30T20:53:15.668Z,97865.27
2017-08-30T20:55:43.109Z,97871.75
2017-08-30T20:58:10.601Z,97875.27
2017-08-30T21:00:38.057Z,97877.62
2017-08-30T21:03:05.552Z,97873.05
2017-08-30T21:05:32.997Z,97865.02
2017-08-30T21:08:00.465Z,97863.18
2017-08-30T21:10:27.941Z,97860.09
2017-08-30T21:12:55.402Z,97863.11
2017-08-30T21:15:22.882Z,97867.68
2017-08-30T21:17:50.368Z,97867.34
2017-08-30T21:20:17.834Z,97878.69
2017-08-30T21:22:45.305Z,97879.04
2017-08-30T21:25:12.778Z,97876.37
2017-08-30T21:27:40.225Z,97867.72
2017-08-30T21:30:07.674Z,97871.18
2017-08-30T21:32:35.273Z,97867.70
2017-08-30T21:35:02.717Z,97868.24
2017-08-30T21:37:30.159Z,97872.95
2017-08-30T21:39:57.752Z,97871.70
2017-08-30T21:42:25.205Z,97871.09
2017-08-30T21:44:52.693Z,97864.46
2017-08-30T21:47:20.144Z,97869.16
2017-08-30T21:49:47.600Z,97867.82
2017-08-30T21:52:15.081Z,97860.58
2017-08-30T21:54:42.561Z,97858.70
2017-08-30T21:57:10.036Z,97856.43
2017-08-30T21:59:37.505Z,97847.92
2017-08-30T22:02:04.969Z,97846.56
2017-08-30T22:04:32.414Z,97846.61
2017-08-30T22:06:59.887Z,97849.73
2017-08-30T22:09:27.338Z,97848.59
2017-08-30T22:11:54.807Z,97853.69
2017-08-30T22:14:22.293Z,97851.17
2017-08-30T22:16:49.746Z,97850.56
2017-08-30T22:19:17.218Z,97840.92
2017-08-30T22:21:44.674Z,97835.41
2017-08-30T22:24:12.145Z,97826.95
2017-08-30T22:26:39.585Z,97818.91
2017-08-30T22:29:07.063Z,97816.70
2017-08-30T22:31:34.501Z,97817.88
2017-08-30T22:34:01.977Z,97815.89
2017-08-30T22:36:29.430Z,97805.41
2017-08-30T22:38:56.898Z,97806.52
2017-08-30T22:41:24.338Z,97801.72
2017-08-30T22:43:51.818Z,97802.87
2017-08-30T22:46:19.256Z,97803.09
2017-08-30T22:48:46.702Z,97811.40
2017-08-30T22:51:14.193Z,97811.29
2017-08-30T22:53:41.642Z,97803.86
2017-08-30T22:56:09.117Z,97802.95
2017-08-30T22:58:36.561Z,97795.51
2017-08-30T23:01:04.038Z,97795.12
2017-08-30T23:03:31.493Z,97798.52
2017-08-30T23:05:59.368Z,97808.84
2017-08-30T23:08:26.821Z,97804.81
2017-08-30T23:10:54.282Z,97803.32
2017-08-30T23:13:21.760Z,97806.14
2017-08-30T23:15:49.225Z,97795.49
2017-08-30T23:18:16.685Z,97788.38
2017-08-30T23:20:44.168Z,97785.53
2017-08-30T23:23:11.630Z,97788.70
2017-08-30T23:25:39.105Z,97784.96
2017-08-30T23:28:06.548Z,97780.25
2017-08-30T23:30:34.009Z,97778.17
2017-08-30T23:33:01.483Z,97782.23
2017-08-30T23:35:28.929Z,97772.48
2017-08-30T23:37:56.381Z,97773.99
2017-08-30T23:40:23.850Z,97770.98
2017-08-30T23:42:51.573Z,97776.83
2017-08-30T23:45:19.021Z,97773.91
2017-08-30T23:47:46.481Z,97777.00
2017-08-30T23:50:13.957Z,97787.39
2017-08-30T23:52:41.404Z,97784.63
2017-08-30T23:55:08.887Z,97785.41
2017-08-30T23:57:36.336Z,97787.89
